Terminal Aerodrome Forecast
Issued by NWS

Home | Current Version | Previous Version | Text Only | Print | Product List | Glossary On
Versions: 1 2 3 4 5 6 7 8 9 10 11 12
121
FTUS44 KCRP 251736
TAFLRD
TAF
KLRD 251736Z 2518/2618 13008KT P6SM SCT040
     FM260000 12016G20KT P6SM FEW080
     FM260800 15008KT P6SM SCT020 SCT150=

USA.gov is the U.S. government's official web portal to all federal, state and local government web resources and services.